sensor_id;sensor_type;location;lat;lon;timestamp;P1;durP1;ratioP1;P2;durP2;ratioP2
77234;SDS011;66253;50.526;14.974;2023-02-26T00:01:19;1.90;;;0.40;;
77234;SDS011;66253;50.526;14.974;2023-02-26T00:08:26;2.00;;;0.50;;
77234;SDS011;66253;50.526;14.974;2023-02-26T00:14:42;3.50;;;1.30;;
77234;SDS011;66253;50.526;14.974;2023-02-26T00:34:33;1.80;;;0.80;;
77234;SDS011;66253;50.526;14.974;2023-02-26T00:45:14;2.10;;;0.60;;
77234;SDS011;66253;50.526;14.974;2023-02-26T01:01:27;2.20;;;0.50;;
77234;SDS011;66253;50.526;14.974;2023-02-26T01:16:13;2.00;;;0.30;;
77234;SDS011;66253;50.526;14.974;2023-02-26T01:18:58;2.00;;;0.60;;
77234;SDS011;66253;50.526;14.974;2023-02-26T01:44:38;2.80;;;0.70;;
77234;SDS011;66253;50.526;14.974;2023-02-26T01:48:30;3.10;;;0.60;;
77234;SDS011;66253;50.526;14.974;2023-02-26T02:02:26;2.00;;;0.50;;
77234;SDS011;66253;50.526;14.974;2023-02-26T02:07:40;2.30;;;0.70;;
77234;SDS011;66253;50.526;14.974;2023-02-26T02:32:48;1.90;;;0.80;;
77234;SDS011;66253;50.526;14.974;2023-02-26T02:40:02;1.20;;;0.20;;
77234;SDS011;66253;50.526;14.974;2023-02-26T02:46:23;2.30;;;0.20;;
77234;SDS011;66253;50.526;14.974;2023-02-26T03:08:15;1.00;;;0.30;;
77234;SDS011;66253;50.526;14.974;2023-02-26T03:15:10;1.50;;;0.60;;
77234;SDS011;66253;50.526;14.974;2023-02-26T03:41:21;2.00;;;0.70;;
77234;SDS011;66253;50.526;14.974;2023-02-26T03:48:20;3.80;;;0.50;;
77234;SDS011;66253;50.526;14.974;2023-02-26T04:14:46;1.90;;;0.50;;
77234;SDS011;66253;50.526;14.974;2023-02-26T04:36:20;1.50;;;0.40;;
77234;SDS011;66253;50.526;14.974;2023-02-26T04:39:12;2.10;;;0.40;;
77234;SDS011;66253;50.526;14.974;2023-02-26T04:41:47;2.50;;;0.90;;
77234;SDS011;66253;50.526;14.974;2023-02-26T04:44:13;1.80;;;0.30;;
77234;SDS011;66253;50.526;14.974;2023-02-26T04:52:30;1.90;;;0.50;;
77234;SDS011;66253;50.526;14.974;2023-02-26T04:55:00;1.60;;;0.30;;
77234;SDS011;66253;50.526;14.974;2023-02-26T05:09:52;3.30;;;0.40;;
77234;SDS011;66253;50.526;14.974;2023-02-26T05:19:21;2.20;;;1.20;;
77234;SDS011;66253;50.526;14.974;2023-02-26T05:22:21;2.90;;;0.80;;
77234;SDS011;66253;50.526;14.974;2023-02-26T05:29:36;2.80;;;0.40;;
77234;SDS011;66253;50.526;14.974;2023-02-26T05:46:21;1.60;;;0.40;;
77234;SDS011;66253;50.526;14.974;2023-02-26T05:52:35;2.80;;;0.40;;
77234;SDS011;66253;50.526;14.974;2023-02-26T06:38:43;1.50;;;0.40;;
77234;SDS011;66253;50.526;14.974;2023-02-26T06:41:52;2.50;;;0.40;;
77234;SDS011;66253;50.526;14.974;2023-02-26T06:44:29;2.90;;;0.50;;
77234;SDS011;66253;50.526;14.974;2023-02-26T06:47:01;3.50;;;0.50;;
77234;SDS011;66253;50.526;14.974;2023-02-26T06:49:29;1.40;;;0.20;;
77234;SDS011;66253;50.526;14.974;2023-02-26T06:51:55;6.50;;;2.80;;
77234;SDS011;66253;50.526;14.974;2023-02-26T06:54:21;10.10;;;4.20;;
77234;SDS011;66253;50.526;14.974;2023-02-26T06:56:47;6.10;;;3.00;;
77234;SDS011;66253;50.526;14.974;2023-02-26T06:59:18;5.10;;;2.80;;
77234;SDS011;66253;50.526;14.974;2023-02-26T07:01:46;3.30;;;1.30;;
77234;SDS011;66253;50.526;14.974;2023-02-26T07:04:15;4.70;;;2.40;;
77234;SDS011;66253;50.526;14.974;2023-02-26T07:06:41;4.40;;;1.50;;
77234;SDS011;66253;50.526;14.974;2023-02-26T07:09:07;2.40;;;0.60;;
77234;SDS011;66253;50.526;14.974;2023-02-26T07:14:13;3.80;;;0.50;;
77234;SDS011;66253;50.526;14.974;2023-02-26T07:16:47;2.60;;;0.50;;
77234;SDS011;66253;50.526;14.974;2023-02-26T07:19:16;4.20;;;0.70;;
77234;SDS011;66253;50.526;14.974;2023-02-26T07:25:52;3.00;;;1.60;;
77234;SDS011;66253;50.526;14.974;2023-02-26T07:28:17;4.30;;;1.50;;
77234;SDS011;66253;50.526;14.974;2023-02-26T07:31:06;5.90;;;2.40;;
77234;SDS011;66253;50.526;14.974;2023-02-26T07:33:41;3.60;;;1.20;;
77234;SDS011;66253;50.526;14.974;2023-02-26T07:36:08;4.30;;;1.70;;
77234;SDS011;66253;50.526;14.974;2023-02-26T07:38:55;4.30;;;1.80;;
77234;SDS011;66253;50.526;14.974;2023-02-26T07:41:22;7.40;;;3.70;;
77234;SDS011;66253;50.526;14.974;2023-02-26T07:43:50;2.00;;;0.40;;
77234;SDS011;66253;50.526;14.974;2023-02-26T07:46:16;3.60;;;1.40;;
77234;SDS011;66253;50.526;14.974;2023-02-26T07:48:42;6.00;;;2.60;;
77234;SDS011;66253;50.526;14.974;2023-02-26T07:51:08;3.00;;;0.70;;
77234;SDS011;66253;50.526;14.974;2023-02-26T07:53:43;3.80;;;1.00;;
77234;SDS011;66253;50.526;14.974;2023-02-26T07:56:09;2.40;;;0.50;;
77234;SDS011;66253;50.526;14.974;2023-02-26T07:58:35;2.50;;;0.50;;
77234;SDS011;66253;50.526;14.974;2023-02-26T08:01:04;2.00;;;0.70;;
77234;SDS011;66253;50.526;14.974;2023-02-26T08:03:32;3.40;;;0.70;;
77234;SDS011;66253;50.526;14.974;2023-02-26T08:06:03;5.20;;;2.10;;
77234;SDS011;66253;50.526;14.974;2023-02-26T08:08:29;4.30;;;0.90;;
77234;SDS011;66253;50.526;14.974;2023-02-26T08:10:55;3.50;;;0.70;;
77234;SDS011;66253;50.526;14.974;2023-02-26T08:13:25;3.70;;;0.70;;
77234;SDS011;66253;50.526;14.974;2023-02-26T08:19:10;3.20;;;0.60;;
77234;SDS011;66253;50.526;14.974;2023-02-26T08:22:11;1.80;;;0.40;;
77234;SDS011;66253;50.526;14.974;2023-02-26T08:31:19;4.10;;;1.20;;
77234;SDS011;66253;50.526;14.974;2023-02-26T08:34:27;17.50;;;6.40;;
77234;SDS011;66253;50.526;14.974;2023-02-26T08:40:41;4.20;;;1.10;;
77234;SDS011;66253;50.526;14.974;2023-02-26T08:43:44;3.30;;;0.80;;
77234;SDS011;66253;50.526;14.974;2023-02-26T08:53:43;23.30;;;13.00;;
77234;SDS011;66253;50.526;14.974;2023-02-26T08:56:42;11.90;;;5.40;;
77234;SDS011;66253;50.526;14.974;2023-02-26T08:59:28;4.40;;;1.40;;
77234;SDS011;66253;50.526;14.974;2023-02-26T09:02:54;6.80;;;3.10;;
77234;SDS011;66253;50.526;14.974;2023-02-26T09:06:39;3.40;;;1.00;;
77234;SDS011;66253;50.526;14.974;2023-02-26T09:08:58;5.20;;;1.20;;
77234;SDS011;66253;50.526;14.974;2023-02-26T09:15:17;3.70;;;1.50;;
77234;SDS011;66253;50.526;14.974;2023-02-26T09:21:27;4.30;;;1.40;;
77234;SDS011;66253;50.526;14.974;2023-02-26T09:30:25;15.90;;;5.30;;
77234;SDS011;66253;50.526;14.974;2023-02-26T09:36:30;4.10;;;1.10;;
77234;SDS011;66253;50.526;14.974;2023-02-26T09:46:19;18.30;;;5.80;;
77234;SDS011;66253;50.526;14.974;2023-02-26T09:48:59;14.20;;;5.20;;
77234;SDS011;66253;50.526;14.974;2023-02-26T09:51:51;6.90;;;1.90;;
77234;SDS011;66253;50.526;14.974;2023-02-26T09:57:34;3.90;;;0.90;;
77234;SDS011;66253;50.526;14.974;2023-02-26T10:00:14;7.10;;;1.80;;
77234;SDS011;66253;50.526;14.974;2023-02-26T10:12:25;6.30;;;2.40;;
77234;SDS011;66253;50.526;14.974;2023-02-26T10:34:09;5.60;;;1.30;;
77234;SDS011;66253;50.526;14.974;2023-02-26T10:50:29;2.60;;;0.60;;
77234;SDS011;66253;50.526;14.974;2023-02-26T10:52:59;4.20;;;1.20;;
77234;SDS011;66253;50.526;14.974;2023-02-26T10:58:24;4.20;;;1.00;;
77234;SDS011;66253;50.526;14.974;2023-02-26T11:01:39;3.60;;;1.10;;
77234;SDS011;66253;50.526;14.974;2023-02-26T11:04:14;4.40;;;1.40;;
77234;SDS011;66253;50.526;14.974;2023-02-26T11:09:44;3.10;;;1.00;;
77234;SDS011;66253;50.526;14.974;2023-02-26T11:14:50;2.90;;;1.00;;
77234;SDS011;66253;50.526;14.974;2023-02-26T11:17:21;3.00;;;1.00;;
77234;SDS011;66253;50.526;14.974;2023-02-26T11:19:56;3.40;;;0.70;;
77234;SDS011;66253;50.526;14.974;2023-02-26T11:22:51;4.70;;;1.40;;
77234;SDS011;66253;50.526;14.974;2023-02-26T11:25:30;6.60;;;2.10;;
77234;SDS011;66253;50.526;14.974;2023-02-26T11:28:19;9.10;;;3.20;;
77234;SDS011;66253;50.526;14.974;2023-02-26T11:30:49;3.60;;;1.10;;
77234;SDS011;66253;50.526;14.974;2023-02-26T11:36:41;3.00;;;0.70;;
77234;SDS011;66253;50.526;14.974;2023-02-26T11:39:35;2.30;;;0.60;;
77234;SDS011;66253;50.526;14.974;2023-02-26T11:46:00;3.30;;;0.70;;
77234;SDS011;66253;50.526;14.974;2023-02-26T11:59:40;4.60;;;1.20;;
77234;SDS011;66253;50.526;14.974;2023-02-26T12:02:12;2.00;;;0.30;;
77234;SDS011;66253;50.526;14.974;2023-02-26T12:05:09;2.00;;;0.40;;
77234;SDS011;66253;50.526;14.974;2023-02-26T12:07:39;3.80;;;0.80;;
77234;SDS011;66253;50.526;14.974;2023-02-26T12:33:09;2.60;;;0.50;;
77234;SDS011;66253;50.526;14.974;2023-02-26T12:35:44;1.50;;;0.30;;
77234;SDS011;66253;50.526;14.974;2023-02-26T12:38:20;2.90;;;0.60;;
77234;SDS011;66253;50.526;14.974;2023-02-26T12:45:52;1.50;;;0.20;;
77234;SDS011;66253;50.526;14.974;2023-02-26T12:49:38;2.80;;;0.60;;
77234;SDS011;66253;50.526;14.974;2023-02-26T13:10:43;3.10;;;0.70;;
77234;SDS011;66253;50.526;14.974;2023-02-26T13:23:14;1.10;;;0.30;;
77234;SDS011;66253;50.526;14.974;2023-02-26T13:25:52;2.50;;;0.60;;
77234;SDS011;66253;50.526;14.974;2023-02-26T13:32:22;4.00;;;0.90;;
77234;SDS011;66253;50.526;14.974;2023-02-26T13:35:43;3.10;;;1.10;;
77234;SDS011;66253;50.526;14.974;2023-02-26T13:47:49;5.50;;;1.70;;
77234;SDS011;66253;50.526;14.974;2023-02-26T13:59:37;2.70;;;0.70;;
77234;SDS011;66253;50.526;14.974;2023-02-26T14:08:24;6.20;;;1.90;;
77234;SDS011;66253;50.526;14.974;2023-02-26T14:27:22;3.20;;;1.00;;
77234;SDS011;66253;50.526;14.974;2023-02-26T14:37:14;6.10;;;1.80;;
77234;SDS011;66253;50.526;14.974;2023-02-26T14:39:42;12.90;;;4.00;;
77234;SDS011;66253;50.526;14.974;2023-02-26T14:45:31;5.60;;;2.00;;
77234;SDS011;66253;50.526;14.974;2023-02-26T15:01:34;6.00;;;1.90;;
77234;SDS011;66253;50.526;14.974;2023-02-26T15:07:19;6.90;;;2.30;;
77234;SDS011;66253;50.526;14.974;2023-02-26T15:25:42;16.60;;;4.40;;
77234;SDS011;66253;50.526;14.974;2023-02-26T15:28:47;11.40;;;2.90;;
77234;SDS011;66253;50.526;14.974;2023-02-26T15:31:32;8.20;;;2.90;;
77234;SDS011;66253;50.526;14.974;2023-02-26T15:37:58;3.60;;;0.70;;
77234;SDS011;66253;50.526;14.974;2023-02-26T15:40:30;6.10;;;1.30;;
77234;SDS011;66253;50.526;14.974;2023-02-26T15:43:04;6.60;;;1.50;;
77234;SDS011;66253;50.526;14.974;2023-02-26T15:45:37;17.90;;;8.10;;
77234;SDS011;66253;50.526;14.974;2023-02-26T15:48:10;25.90;;;13.50;;
77234;SDS011;66253;50.526;14.974;2023-02-26T15:50:42;31.60;;;14.90;;
77234;SDS011;66253;50.526;14.974;2023-02-26T15:53:15;9.50;;;3.60;;
77234;SDS011;66253;50.526;14.974;2023-02-26T15:55:46;9.90;;;3.70;;
77234;SDS011;66253;50.526;14.974;2023-02-26T15:58:20;6.80;;;2.60;;
77234;SDS011;66253;50.526;14.974;2023-02-26T16:01:02;10.30;;;2.90;;
77234;SDS011;66253;50.526;14.974;2023-02-26T16:03:33;12.20;;;5.00;;
77234;SDS011;66253;50.526;14.974;2023-02-26T16:06:02;21.90;;;9.30;;
77234;SDS011;66253;50.526;14.974;2023-02-26T16:08:30;28.60;;;14.20;;
77234;SDS011;66253;50.526;14.974;2023-02-26T16:11:05;7.40;;;2.20;;
77234;SDS011;66253;50.526;14.974;2023-02-26T16:13:41;12.80;;;5.20;;
77234;SDS011;66253;50.526;14.974;2023-02-26T16:16:14;5.50;;;2.20;;
77234;SDS011;66253;50.526;14.974;2023-02-26T16:18:48;7.40;;;2.20;;
77234;SDS011;66253;50.526;14.974;2023-02-26T16:21:26;9.70;;;4.30;;
77234;SDS011;66253;50.526;14.974;2023-02-26T16:26:31;7.00;;;2.50;;
77234;SDS011;66253;50.526;14.974;2023-02-26T16:29:06;9.50;;;3.40;;
77234;SDS011;66253;50.526;14.974;2023-02-26T16:31:40;8.70;;;3.30;;
77234;SDS011;66253;50.526;14.974;2023-02-26T16:37:10;15.90;;;4.90;;
77234;SDS011;66253;50.526;14.974;2023-02-26T16:39:36;9.70;;;3.30;;
77234;SDS011;66253;50.526;14.974;2023-02-26T16:42:20;8.60;;;2.80;;
77234;SDS011;66253;50.526;14.974;2023-02-26T16:45:13;8.70;;;2.70;;
77234;SDS011;66253;50.526;14.974;2023-02-26T16:47:48;5.80;;;1.90;;
77234;SDS011;66253;50.526;14.974;2023-02-26T16:50:23;15.80;;;5.80;;
77234;SDS011;66253;50.526;14.974;2023-02-26T16:53:08;12.60;;;5.60;;
77234;SDS011;66253;50.526;14.974;2023-02-26T16:55:53;8.10;;;3.30;;
77234;SDS011;66253;50.526;14.974;2023-02-26T16:58:24;10.70;;;5.40;;
77234;SDS011;66253;50.526;14.974;2023-02-26T17:01:17;12.80;;;7.30;;
77234;SDS011;66253;50.526;14.974;2023-02-26T17:06:32;16.70;;;9.40;;
77234;SDS011;66253;50.526;14.974;2023-02-26T17:12:51;7.20;;;1.90;;
77234;SDS011;66253;50.526;14.974;2023-02-26T17:15:19;18.00;;;11.50;;
77234;SDS011;66253;50.526;14.974;2023-02-26T17:17:57;9.20;;;3.90;;
77234;SDS011;66253;50.526;14.974;2023-02-26T17:20:25;8.90;;;3.70;;
77234;SDS011;66253;50.526;14.974;2023-02-26T17:23:02;11.10;;;5.60;;
77234;SDS011;66253;50.526;14.974;2023-02-26T17:25:34;11.20;;;5.10;;
77234;SDS011;66253;50.526;14.974;2023-02-26T17:28:04;8.10;;;4.00;;
77234;SDS011;66253;50.526;14.974;2023-02-26T17:30:34;7.30;;;3.30;;
77234;SDS011;66253;50.526;14.974;2023-02-26T17:33:03;6.90;;;2.90;;
77234;SDS011;66253;50.526;14.974;2023-02-26T17:35:40;7.20;;;3.30;;
77234;SDS011;66253;50.526;14.974;2023-02-26T17:38:16;8.80;;;3.50;;
77234;SDS011;66253;50.526;14.974;2023-02-26T17:41:25;5.20;;;1.80;;
77234;SDS011;66253;50.526;14.974;2023-02-26T17:44:15;7.60;;;2.70;;
77234;SDS011;66253;50.526;14.974;2023-02-26T17:46:40;5.40;;;2.30;;
77234;SDS011;66253;50.526;14.974;2023-02-26T17:52:16;5.70;;;2.20;;
77234;SDS011;66253;50.526;14.974;2023-02-26T17:54:54;6.80;;;3.20;;
77234;SDS011;66253;50.526;14.974;2023-02-26T17:57:23;5.90;;;2.40;;
77234;SDS011;66253;50.526;14.974;2023-02-26T18:01:18;3.80;;;1.80;;
77234;SDS011;66253;50.526;14.974;2023-02-26T18:03:39;5.00;;;2.30;;
77234;SDS011;66253;50.526;14.974;2023-02-26T18:06:29;11.30;;;4.00;;
77234;SDS011;66253;50.526;14.974;2023-02-26T18:09:14;11.50;;;3.30;;
77234;SDS011;66253;50.526;14.974;2023-02-26T18:11:40;13.10;;;3.90;;
77234;SDS011;66253;50.526;14.974;2023-02-26T18:14:12;7.10;;;1.90;;
77234;SDS011;66253;50.526;14.974;2023-02-26T18:16:39;12.40;;;3.20;;
77234;SDS011;66253;50.526;14.974;2023-02-26T18:19:34;6.50;;;1.60;;
77234;SDS011;66253;50.526;14.974;2023-02-26T18:22:00;8.40;;;2.10;;
77234;SDS011;66253;50.526;14.974;2023-02-26T18:24:27;7.20;;;2.30;;
77234;SDS011;66253;50.526;14.974;2023-02-26T18:26:53;6.40;;;1.70;;
77234;SDS011;66253;50.526;14.974;2023-02-26T18:29:22;5.50;;;1.60;;
77234;SDS011;66253;50.526;14.974;2023-02-26T18:31:48;6.90;;;1.60;;
77234;SDS011;66253;50.526;14.974;2023-02-26T18:34:37;7.50;;;2.00;;
77234;SDS011;66253;50.526;14.974;2023-02-26T18:37:25;10.20;;;3.30;;
77234;SDS011;66253;50.526;14.974;2023-02-26T18:39:53;9.70;;;3.20;;
77234;SDS011;66253;50.526;14.974;2023-02-26T18:42:20;10.00;;;2.90;;
77234;SDS011;66253;50.526;14.974;2023-02-26T18:44:48;22.20;;;6.40;;
77234;SDS011;66253;50.526;14.974;2023-02-26T18:47:39;12.60;;;4.10;;
77234;SDS011;66253;50.526;14.974;2023-02-26T18:53:12;9.00;;;2.90;;
77234;SDS011;66253;50.526;14.974;2023-02-26T18:55:41;5.50;;;1.90;;
77234;SDS011;66253;50.526;14.974;2023-02-26T18:58:14;6.00;;;2.30;;
77234;SDS011;66253;50.526;14.974;2023-02-26T19:00:48;7.20;;;2.30;;
77234;SDS011;66253;50.526;14.974;2023-02-26T19:03:24;4.80;;;1.50;;
77234;SDS011;66253;50.526;14.974;2023-02-26T19:05:56;5.50;;;1.00;;
77234;SDS011;66253;50.526;14.974;2023-02-26T19:08:23;7.40;;;1.60;;
77234;SDS011;66253;50.526;14.974;2023-02-26T19:10:49;8.30;;;2.60;;
77234;SDS011;66253;50.526;14.974;2023-02-26T19:13:15;18.20;;;8.20;;
77234;SDS011;66253;50.526;14.974;2023-02-26T19:15:49;31.10;;;13.40;;
77234;SDS011;66253;50.526;14.974;2023-02-26T19:18:15;96.80;;;49.60;;
77234;SDS011;66253;50.526;14.974;2023-02-26T19:23:38;15.30;;;7.60;;
77234;SDS011;66253;50.526;14.974;2023-02-26T19:26:09;7.30;;;2.50;;
77234;SDS011;66253;50.526;14.974;2023-02-26T19:28:37;10.40;;;3.30;;
77234;SDS011;66253;50.526;14.974;2023-02-26T19:31:03;13.30;;;4.70;;
77234;SDS011;66253;50.526;14.974;2023-02-26T19:33:31;9.50;;;3.50;;
77234;SDS011;66253;50.526;14.974;2023-02-26T19:35:59;28.90;;;12.60;;
77234;SDS011;66253;50.526;14.974;2023-02-26T19:38:26;7.10;;;3.00;;
77234;SDS011;66253;50.526;14.974;2023-02-26T19:43:51;16.80;;;7.10;;
77234;SDS011;66253;50.526;14.974;2023-02-26T19:46:57;17.40;;;5.30;;
77234;SDS011;66253;50.526;14.974;2023-02-26T19:49:44;10.00;;;3.50;;
77234;SDS011;66253;50.526;14.974;2023-02-26T19:52:20;15.10;;;7.10;;
77234;SDS011;66253;50.526;14.974;2023-02-26T19:54:46;10.20;;;3.70;;
77234;SDS011;66253;50.526;14.974;2023-02-26T19:57:21;17.70;;;8.00;;
77234;SDS011;66253;50.526;14.974;2023-02-26T19:59:55;11.40;;;5.00;;
77234;SDS011;66253;50.526;14.974;2023-02-26T20:02:32;16.20;;;8.60;;
77234;SDS011;66253;50.526;14.974;2023-02-26T20:04:57;12.30;;;4.50;;
77234;SDS011;66253;50.526;14.974;2023-02-26T20:07:31;9.40;;;4.70;;
77234;SDS011;66253;50.526;14.974;2023-02-26T20:10:08;14.20;;;5.30;;
77234;SDS011;66253;50.526;14.974;2023-02-26T20:12:47;11.50;;;4.30;;
77234;SDS011;66253;50.526;14.974;2023-02-26T20:15:14;6.60;;;2.40;;
77234;SDS011;66253;50.526;14.974;2023-02-26T20:17:41;16.40;;;7.10;;
77234;SDS011;66253;50.526;14.974;2023-02-26T20:20:07;14.60;;;5.30;;
77234;SDS011;66253;50.526;14.974;2023-02-26T20:22:45;20.70;;;8.50;;
77234;SDS011;66253;50.526;14.974;2023-02-26T20:25:13;45.20;;;17.20;;
77234;SDS011;66253;50.526;14.974;2023-02-26T20:27:39;10.70;;;2.90;;
77234;SDS011;66253;50.526;14.974;2023-02-26T20:30:09;13.10;;;3.40;;
77234;SDS011;66253;50.526;14.974;2023-02-26T20:32:42;13.80;;;3.40;;
77234;SDS011;66253;50.526;14.974;2023-02-26T20:38:09;15.60;;;4.40;;
77234;SDS011;66253;50.526;14.974;2023-02-26T20:40:35;20.90;;;5.70;;
77234;SDS011;66253;50.526;14.974;2023-02-26T20:43:00;8.90;;;2.80;;
77234;SDS011;66253;50.526;14.974;2023-02-26T20:45:35;24.30;;;6.30;;
77234;SDS011;66253;50.526;14.974;2023-02-26T20:48:10;10.50;;;3.20;;
77234;SDS011;66253;50.526;14.974;2023-02-26T20:54:11;11.20;;;3.40;;
77234;SDS011;66253;50.526;14.974;2023-02-26T20:57:24;12.30;;;4.90;;
77234;SDS011;66253;50.526;14.974;2023-02-26T20:59:33;15.40;;;5.70;;
77234;SDS011;66253;50.526;14.974;2023-02-26T21:02:30;16.90;;;4.10;;
77234;SDS011;66253;50.526;14.974;2023-02-26T21:05:10;12.30;;;4.30;;
77234;SDS011;66253;50.526;14.974;2023-02-26T21:07:45;13.50;;;4.90;;
77234;SDS011;66253;50.526;14.974;2023-02-26T21:10:38;15.70;;;5.80;;
77234;SDS011;66253;50.526;14.974;2023-02-26T21:13:12;13.30;;;4.80;;
77234;SDS011;66253;50.526;14.974;2023-02-26T21:15:38;21.50;;;8.60;;
77234;SDS011;66253;50.526;14.974;2023-02-26T21:18:04;39.80;;;15.80;;
77234;SDS011;66253;50.526;14.974;2023-02-26T21:20:33;28.90;;;10.20;;
77234;SDS011;66253;50.526;14.974;2023-02-26T21:23:01;23.60;;;8.40;;
77234;SDS011;66253;50.526;14.974;2023-02-26T21:25:27;22.80;;;8.40;;
77234;SDS011;66253;50.526;14.974;2023-02-26T21:27:58;20.90;;;9.10;;
77234;SDS011;66253;50.526;14.974;2023-02-26T21:30:26;30.30;;;10.80;;
77234;SDS011;66253;50.526;14.974;2023-02-26T21:32:56;48.40;;;16.70;;
77234;SDS011;66253;50.526;14.974;2023-02-26T21:35:25;41.00;;;13.60;;
77234;SDS011;66253;50.526;14.974;2023-02-26T21:37:51;50.40;;;15.50;;
77234;SDS011;66253;50.526;14.974;2023-02-26T21:40:26;33.30;;;10.10;;
77234;SDS011;66253;50.526;14.974;2023-02-26T21:42:58;51.70;;;17.30;;
77234;SDS011;66253;50.526;14.974;2023-02-26T21:45:52;55.70;;;17.00;;
77234;SDS011;66253;50.526;14.974;2023-02-26T21:48:26;28.80;;;8.60;;
77234;SDS011;66253;50.526;14.974;2023-02-26T21:51:01;17.80;;;5.60;;
77234;SDS011;66253;50.526;14.974;2023-02-26T21:53:36;12.20;;;4.30;;
77234;SDS011;66253;50.526;14.974;2023-02-26T21:58:51;11.30;;;3.70;;
77234;SDS011;66253;50.526;14.974;2023-02-26T22:01:32;14.30;;;4.50;;
77234;SDS011;66253;50.526;14.974;2023-02-26T22:03:58;9.70;;;2.60;;
77234;SDS011;66253;50.526;14.974;2023-02-26T22:06:29;16.60;;;5.20;;
77234;SDS011;66253;50.526;14.974;2023-02-26T22:09:01;10.00;;;3.40;;
77234;SDS011;66253;50.526;14.974;2023-02-26T22:11:35;8.30;;;2.80;;
77234;SDS011;66253;50.526;14.974;2023-02-26T22:14:04;15.80;;;4.60;;
77234;SDS011;66253;50.526;14.974;2023-02-26T22:16:30;18.10;;;5.70;;
77234;SDS011;66253;50.526;14.974;2023-02-26T22:18:59;24.90;;;7.10;;
77234;SDS011;66253;50.526;14.974;2023-02-26T22:21:30;29.70;;;9.20;;
77234;SDS011;66253;50.526;14.974;2023-02-26T22:23:56;25.10;;;8.20;;
77234;SDS011;66253;50.526;14.974;2023-02-26T22:26:50;37.30;;;11.30;;
77234;SDS011;66253;50.526;14.974;2023-02-26T22:29:32;46.50;;;12.80;;
77234;SDS011;66253;50.526;14.974;2023-02-26T22:32:19;30.50;;;10.30;;
77234;SDS011;66253;50.526;14.974;2023-02-26T22:34:46;36.10;;;10.00;;
77234;SDS011;66253;50.526;14.974;2023-02-26T22:37:12;36.60;;;10.30;;
77234;SDS011;66253;50.526;14.974;2023-02-26T22:39:37;11.00;;;4.10;;
77234;SDS011;66253;50.526;14.974;2023-02-26T22:42:06;36.80;;;11.00;;
77234;SDS011;66253;50.526;14.974;2023-02-26T22:44:37;12.90;;;3.70;;
77234;SDS011;66253;50.526;14.974;2023-02-26T22:47:09;8.80;;;3.20;;
77234;SDS011;66253;50.526;14.974;2023-02-26T22:49:40;10.90;;;3.80;;
77234;SDS011;66253;50.526;14.974;2023-02-26T22:58:11;22.50;;;6.00;;
77234;SDS011;66253;50.526;14.974;2023-02-26T23:04:32;10.00;;;3.30;;
77234;SDS011;66253;50.526;14.974;2023-02-26T23:07:30;7.10;;;2.40;;
77234;SDS011;66253;50.526;14.974;2023-02-26T23:09:58;14.50;;;4.60;;
77234;SDS011;66253;50.526;14.974;2023-02-26T23:12:26;23.10;;;6.10;;
77234;SDS011;66253;50.526;14.974;2023-02-26T23:15:03;17.30;;;5.60;;
77234;SDS011;66253;50.526;14.974;2023-02-26T23:18:07;18.80;;;5.00;;
77234;SDS011;66253;50.526;14.974;2023-02-26T23:21:03;8.20;;;2.00;;
77234;SDS011;66253;50.526;14.974;2023-02-26T23:24:12;13.20;;;2.80;;
77234;SDS011;66253;50.526;14.974;2023-02-26T23:26:50;13.80;;;4.30;;
77234;SDS011;66253;50.526;14.974;2023-02-26T23:29:19;10.00;;;2.50;;
77234;SDS011;66253;50.526;14.974;2023-02-26T23:31:50;10.70;;;2.50;;
77234;SDS011;66253;50.526;14.974;2023-02-26T23:34:28;6.70;;;1.80;;
77234;SDS011;66253;50.526;14.974;2023-02-26T23:39:48;8.90;;;1.90;;
77234;SDS011;66253;50.526;14.974;2023-02-26T23:43:15;6.30;;;1.90;;
77234;SDS011;66253;50.526;14.974;2023-02-26T23:49:00;5.40;;;1.70;;
77234;SDS011;66253;50.526;14.974;2023-02-26T23:51:50;4.50;;;1.30;;
77234;SDS011;66253;50.526;14.974;2023-02-26T23:54:29;4.90;;;1.40;;
